Time;durP1;ratioP1;P1;durP2;ratioP2;P2;SDS_P1;SDS_P2;PMS_P1;PMS_P2;Temp;Humidity;BMP_temperature;BMP_pressure;BME280_temperature;BME280_humidity;BME280_pressure;Samples;Min_cycle;Max_cycle;Signal;HPM_P1;HPM_P2
2023/08/27 00:00:13;;;;;;;2.50;1.10;;;;;;;;;;470840;29;1072;-72
2023/08/27 00:00:28;;;;;;;2.63;1.10;;;;;;;;;;471662;29;1113;-72
2023/08/27 00:00:43;;;;;;;2.65;1.10;;;;;;;;;;474697;29;1006;-72
2023/08/27 00:00:59;;;;;;;2.80;1.10;;;;;;;;;;472510;29;1124;-72
2023/08/27 00:01:15;;;;;;;3.25;1.20;;;;;;;;;;473803;29;1252;-72
2023/08/27 00:01:30;;;;;;;2.50;1.20;;;;;;;;;;472423;29;1126;-72
2023/08/27 00:01:46;;;;;;;1.60;1.00;;;;;;;;;;472979;29;1066;-72
2023/08/27 00:02:01;;;;;;;1.80;1.20;;;;;;;;;;473505;29;1284;-72
2023/08/27 00:02:17;;;;;;;1.85;1.30;;;;;;;;;;473298;29;1106;-72
2023/08/27 00:02:32;;;;;;;2.20;1.20;;;;;;;;;;472905;29;1195;-72
2023/08/27 00:02:47;;;;;;;2.70;1.20;;;;;;;;;;473283;29;960;-72
2023/08/27 00:03:03;;;;;;;2.40;1.20;;;;;;;;;;472022;29;1296;-72
2023/08/27 00:03:19;;;;;;;1.60;1.10;;;;;;;;;;470879;29;1364;-72
2023/08/27 00:03:34;;;;;;;1.70;1.10;;;;;;;;;;470248;29;1150;-72
2023/08/27 00:03:50;;;;;;;1.85;1.10;;;;;;;;;;471709;29;1100;-72
2023/08/27 00:04:06;;;;;;;1.90;1.15;;;;;;;;;;470431;29;1178;-72
2023/08/27 00:04:21;;;;;;;3.13;1.23;;;;;;;;;;471998;29;1258;-73
2023/08/27 00:04:37;;;;;;;2.90;1.20;;;;;;;;;;472496;29;1205;-72
2023/08/27 00:04:52;;;;;;;2.25;1.20;;;;;;;;;;471708;29;1342;-72
2023/08/27 00:05:09;;;;;;;2.60;1.30;;;;;;;;;;472388;29;2054;-73
2023/08/27 00:05:24;;;;;;;2.90;1.23;;;;;;;;;;471074;29;1457;-71
2023/08/27 00:05:43;;;;;;;2.22;1.10;;;;;;;;;;472060;29;1012;-72
2023/08/27 00:05:58;;;;;;;2.70;1.10;;;;;;;;;;471847;29;1130;-71
2023/08/27 00:06:13;;;;;;;3.07;1.10;;;;;;;;;;468842;29;1359;-71
2023/08/27 00:06:29;;;;;;;2.17;1.10;;;;;;;;;;469561;29;1261;-72
2023/08/27 00:06:44;;;;;;;2.15;1.20;;;;;;;;;;469780;29;1055;-72
2023/08/27 00:07:00;;;;;;;3.63;1.30;;;;;;;;;;469393;29;1019;-72
2023/08/27 00:07:16;;;;;;;3.57;1.20;;;;;;;;;;469395;29;1164;-72
2023/08/27 00:07:31;;;;;;;2.03;1.13;;;;;;;;;;470962;29;1311;-72
2023/08/27 00:07:46;;;;;;;2.13;1.00;;;;;;;;;;470527;29;1074;-72
2023/08/27 00:08:03;;;;;;;2.00;0.90;;;;;;;;;;469765;29;880;-72
2023/08/27 00:08:18;;;;;;;1.60;0.95;;;;;;;;;;472931;29;1078;-72
2023/08/27 00:08:33;;;;;;;1.98;1.00;;;;;;;;;;471882;29;1105;-71
2023/08/27 00:08:50;;;;;;;2.37;1.13;;;;;;;;;;472803;29;1344;-72
2023/08/27 00:09:06;;;;;;;2.35;1.20;;;;;;;;;;470878;29;1450;-72
2023/08/27 00:09:21;;;;;;;1.58;1.10;;;;;;;;;;471248;29;1037;-72
2023/08/27 00:09:37;;;;;;;1.50;1.00;;;;;;;;;;470952;29;1001;-72
2023/08/27 00:09:52;;;;;;;1.60;1.00;;;;;;;;;;471442;29;1207;-72
2023/08/27 00:10:08;;;;;;;1.37;1.00;;;;;;;;;;472176;29;1128;-72
2023/08/27 00:10:23;;;;;;;1.38;1.00;;;;;;;;;;471470;29;1298;-72
2023/08/27 00:10:39;;;;;;;1.00;0.90;;;;;;;;;;470967;29;1111;-72
2023/08/27 00:10:58;;;;;;;1.00;0.90;;;;;;;;;;472465;29;1131;-72
2023/08/27 00:11:14;;;;;;;1.25;0.90;;;;;;;;;;470699;29;1123;-72
2023/08/27 00:11:29;;;;;;;1.27;0.97;;;;;;;;;;470540;29;927;-72
2023/08/27 00:11:45;;;;;;;1.52;1.10;;;;;;;;;;469433;29;1173;-72
2023/08/27 00:12:00;;;;;;;1.90;1.10;;;;;;;;;;469086;29;945;-72
2023/08/27 00:12:16;;;;;;;1.50;1.00;;;;;;;;;;470013;29;1229;-72
2023/08/27 00:12:31;;;;;;;2.00;0.93;;;;;;;;;;470723;29;923;-72
2023/08/27 00:12:47;;;;;;;2.08;1.00;;;;;;;;;;469907;29;1111;-72
2023/08/27 00:13:02;;;;;;;1.33;1.00;;;;;;;;;;472032;29;1290;-72
2023/08/27 00:13:17;;;;;;;1.40;1.00;;;;;;;;;;473841;29;923;-72
2023/08/27 00:13:33;;;;;;;1.17;0.90;;;;;;;;;;471430;29;1082;-72
2023/08/27 00:13:48;;;;;;;1.55;1.00;;;;;;;;;;473561;29;986;-72
2023/08/27 00:14:04;;;;;;;1.90;1.17;;;;;;;;;;471654;29;880;-72
2023/08/27 00:14:19;;;;;;;1.77;1.10;;;;;;;;;;471787;29;1063;-72
2023/08/27 00:14:35;;;;;;;2.57;1.10;;;;;;;;;;472029;29;1044;-72
2023/08/27 00:14:50;;;;;;;2.50;1.20;;;;;;;;;;471483;29;895;-72
2023/08/27 00:15:06;;;;;;;2.85;1.20;;;;;;;;;;471319;29;1078;-71
2023/08/27 00:15:22;;;;;;;2.70;1.10;;;;;;;;;;470813;29;1195;-72
2023/08/27 00:15:44;;;;;;;1.87;1.00;;;;;;;;;;472666;29;1356;-71
2023/08/27 00:16:00;;;;;;;1.70;1.20;;;;;;;;;;472307;29;1225;-72
2023/08/27 00:16:15;;;;;;;2.23;1.30;;;;;;;;;;473465;29;1223;-72
2023/08/27 00:16:31;;;;;;;1.90;1.27;;;;;;;;;;472911;29;1272;-71
2023/08/27 00:16:46;;;;;;;1.83;1.27;;;;;;;;;;472689;29;1231;-72
2023/08/27 00:17:03;;;;;;;2.00;1.30;;;;;;;;;;472157;29;1161;-72
2023/08/27 00:17:18;;;;;;;2.38;1.30;;;;;;;;;;471121;29;1392;-71
2023/08/27 00:17:34;;;;;;;3.00;1.20;;;;;;;;;;471755;29;1298;-72
2023/08/27 00:17:50;;;;;;;3.65;1.23;;;;;;;;;;472166;29;1057;-72
2023/08/27 00:18:06;;;;;;;3.72;1.40;;;;;;;;;;472626;29;935;-72
2023/08/27 00:18:21;;;;;;;2.27;1.20;;;;;;;;;;471649;29;1285;-72
2023/08/27 00:18:36;;;;;;;1.73;1.20;;;;;;;;;;472125;29;1027;-72
2023/08/27 00:18:52;;;;;;;2.13;1.43;;;;;;;;;;471643;29;943;-73
2023/08/27 00:19:07;;;;;;;2.45;1.45;;;;;;;;;;471430;29;1124;-72
2023/08/27 00:19:23;;;;;;;2.27;1.40;;;;;;;;;;471543;29;1121;-72
2023/08/27 00:19:38;;;;;;;2.07;1.30;;;;;;;;;;471674;29;1202;-72
2023/08/27 00:19:54;;;;;;;2.92;1.40;;;;;;;;;;471274;29;1351;-72
2023/08/27 00:20:10;;;;;;;3.47;1.30;;;;;;;;;;472362;29;1011;-72
2023/08/27 00:20:25;;;;;;;2.65;1.20;;;;;;;;;;472248;29;955;-72
2023/08/27 00:20:41;;;;;;;3.20;1.30;;;;;;;;;;471973;29;1136;-72
2023/08/27 00:20:56;;;;;;;2.88;1.33;;;;;;;;;;468137;29;1182;-72
2023/08/27 00:21:12;;;;;;;1.70;1.30;;;;;;;;;;468863;29;1112;-72
2023/08/27 00:21:27;;;;;;;1.90;1.40;;;;;;;;;;468796;29;1256;-72
2023/08/27 00:21:42;;;;;;;2.28;1.30;;;;;;;;;;469997;29;1312;-72
2023/08/27 00:21:58;;;;;;;2.80;1.20;;;;;;;;;;469207;29;931;-72
2023/08/27 00:22:13;;;;;;;3.20;1.40;;;;;;;;;;469524;29;1156;-72
2023/08/27 00:22:28;;;;;;;3.25;1.40;;;;;;;;;;472178;29;1261;-71
2023/08/27 00:22:44;;;;;;;3.40;1.30;;;;;;;;;;470794;29;1293;-72
2023/08/27 00:22:59;;;;;;;2.90;1.20;;;;;;;;;;471837;29;1062;-72
2023/08/27 00:23:16;;;;;;;2.50;1.20;;;;;;;;;;472242;28;1356;-72
2023/08/27 00:23:31;;;;;;;3.95;1.20;;;;;;;;;;472288;29;986;-72
2023/08/27 00:23:47;;;;;;;3.50;1.30;;;;;;;;;;472416;29;1067;-72
2023/08/27 00:24:04;;;;;;;2.07;1.30;;;;;;;;;;471953;29;1056;-72
2023/08/27 00:24:19;;;;;;;2.17;1.30;;;;;;;;;;473058;29;1084;-72
2023/08/27 00:24:34;;;;;;;2.30;1.30;;;;;;;;;;472740;29;1043;-72
2023/08/27 00:24:50;;;;;;;2.10;1.23;;;;;;;;;;470692;29;1254;-72
2023/08/27 00:25:06;;;;;;;2.47;1.17;;;;;;;;;;470266;29;2066;-72
2023/08/27 00:25:21;;;;;;;2.93;1.10;;;;;;;;;;468972;29;1327;-72
2023/08/27 00:25:37;;;;;;;2.15;1.10;;;;;;;;;;468291;29;1327;-72
2023/08/27 00:25:52;;;;;;;2.10;1.23;;;;;;;;;;468623;29;1240;-72
2023/08/27 00:26:08;;;;;;;2.65;1.30;;;;;;;;;;468374;29;1123;-72
2023/08/27 00:26:23;;;;;;;2.27;1.20;;;;;;;;;;472059;29;1509;-72
2023/08/27 00:26:38;;;;;;;2.35;1.30;;;;;;;;;;471628;29;1075;-72
2023/08/27 00:26:54;;;;;;;2.17;1.10;;;;;;;;;;470645;29;943;-72
2023/08/27 00:27:09;;;;;;;2.33;1.07;;;;;;;;;;471742;29;1280;-72
2023/08/27 00:27:24;;;;;;;2.55;1.00;;;;;;;;;;472418;29;1031;-69
2023/08/27 00:27:40;;;;;;;1.60;0.90;;;;;;;;;;471297;29;1175;-68
2023/08/27 00:27:55;;;;;;;2.10;1.10;;;;;;;;;;471941;29;1217;-68
2023/08/27 00:28:12;;;;;;;3.50;1.92;;;;;;;;;;471074;29;1290;-68
2023/08/27 00:28:28;;;;;;;4.28;2.80;;;;;;;;;;470883;29;1246;-68
2023/08/27 00:28:43;;;;;;;3.57;2.37;;;;;;;;;;473359;29;1008;-69
2023/08/27 00:28:59;;;;;;;3.05;2.42;;;;;;;;;;472764;29;1392;-68
2023/08/27 00:29:18;;;;;;;5.50;3.47;;;;;;;;;;473698;29;1064;-69
2023/08/27 00:29:33;;;;;;;7.15;4.30;;;;;;;;;;472145;29;1103;-68
2023/08/27 00:29:49;;;;;;;7.45;4.80;;;;;;;;;;470820;29;1217;-68
2023/08/27 00:30:04;;;;;;;6.43;4.57;;;;;;;;;;470561;29;1090;-68
2023/08/27 00:30:20;;;;;;;5.22;4.03;;;;;;;;;;470140;29;1364;-68
2023/08/27 00:30:35;;;;;;;4.90;3.88;;;;;;;;;;469414;29;1162;-69
2023/08/27 00:31:00;;;;;;;5.13;3.57;;;;;;;;;;470898;29;1133;-69
2023/08/27 00:31:15;;;;;;;5.32;2.88;;;;;;;;;;471449;29;932;-69
2023/08/27 00:31:31;;;;;;;4.13;2.70;;;;;;;;;;474011;29;1101;-68
2023/08/27 00:31:46;;;;;;;3.20;2.30;;;;;;;;;;470844;29;1224;-68
2023/08/27 00:32:03;;;;;;;3.28;2.10;;;;;;;;;;471235;29;1296;-68
2023/08/27 00:32:18;;;;;;;3.60;2.10;;;;;;;;;;470695;29;1764;-68
2023/08/27 00:32:34;;;;;;;3.17;2.03;;;;;;;;;;470039;29;1266;-68
2023/08/27 00:32:49;;;;;;;2.73;1.97;;;;;;;;;;470412;29;1236;-68
2023/08/27 00:33:05;;;;;;;2.90;1.83;;;;;;;;;;470807;29;973;-68
2023/08/27 00:33:20;;;;;;;2.93;1.80;;;;;;;;;;470420;29;1241;-69
2023/08/27 00:33:35;;;;;;;3.25;1.83;;;;;;;;;;470980;29;1299;-69
2023/08/27 00:33:51;;;;;;;2.80;1.77;;;;;;;;;;471750;29;1350;-68
2023/08/27 00:34:06;;;;;;;2.63;1.63;;;;;;;;;;471706;29;1306;-68
2023/08/27 00:34:32;;;;;;;3.05;1.65;;;;;;;;;;473523;29;1058;-69
2023/08/27 00:34:47;;;;;;;2.28;1.52;;;;;;;;;;469533;29;1321;-69
2023/08/27 00:35:03;;;;;;;1.92;1.50;;;;;;;;;;468971;29;1083;-68
2023/08/27 00:35:19;;;;;;;1.90;1.50;;;;;;;;;;467854;29;1278;-68
2023/08/27 00:35:35;;;;;;;2.17;1.50;;;;;;;;;;467252;29;1314;-69
2023/08/27 00:35:53;;;;;;;2.80;1.67;;;;;;;;;;468091;29;1252;-68
2023/08/27 00:36:08;;;;;;;2.97;1.75;;;;;;;;;;469408;29;1315;-69
2023/08/27 00:36:24;;;;;;;2.33;1.60;;;;;;;;;;470110;29;1128;-69
2023/08/27 00:36:41;;;;;;;2.10;1.52;;;;;;;;;;470824;29;1167;-68
2023/08/27 00:36:56;;;;;;;2.22;1.40;;;;;;;;;;471116;29;1093;-68
2023/08/27 00:37:11;;;;;;;2.25;1.50;;;;;;;;;;470085;29;1213;-68
2023/08/27 00:37:27;;;;;;;2.37;1.70;;;;;;;;;;469986;29;1098;-68
2023/08/27 00:37:42;;;;;;;2.33;1.70;;;;;;;;;;470584;29;966;-68
2023/08/27 00:37:58;;;;;;;2.35;1.52;;;;;;;;;;472195;29;1079;-68
2023/08/27 00:38:13;;;;;;;2.47;1.50;;;;;;;;;;472476;29;997;-69
2023/08/27 00:38:29;;;;;;;2.50;1.63;;;;;;;;;;471594;29;1056;-68
2023/08/27 00:38:44;;;;;;;2.20;1.57;;;;;;;;;;473946;29;1197;-68
2023/08/27 00:38:59;;;;;;;1.77;1.38;;;;;;;;;;472700;29;1326;-68
2023/08/27 00:39:17;;;;;;;1.77;1.40;;;;;;;;;;470845;29;1055;-68
2023/08/27 00:39:33;;;;;;;2.10;1.50;;;;;;;;;;471422;29;1291;-69
2023/08/27 00:39:48;;;;;;;2.57;1.80;;;;;;;;;;469784;29;1331;-69
2023/08/27 00:40:05;;;;;;;2.80;1.70;;;;;;;;;;467060;29;1050;-68
2023/08/27 00:40:21;;;;;;;4.80;1.73;;;;;;;;;;467546;29;1065;-69
2023/08/27 00:40:36;;;;;;;4.03;1.53;;;;;;;;;;468338;29;1123;-69
2023/08/27 00:40:51;;;;;;;2.00;1.40;;;;;;;;;;468479;29;1232;-69
2023/08/27 00:41:07;;;;;;;2.00;1.50;;;;;;;;;;468897;29;1385;-69
2023/08/27 00:41:22;;;;;;;1.93;1.30;;;;;;;;;;470879;29;1259;-68
2023/08/27 00:41:38;;;;;;;1.80;1.23;;;;;;;;;;468916;29;1049;-68
2023/08/27 00:41:53;;;;;;;2.77;1.57;;;;;;;;;;470481;29;1292;-69
2023/08/27 00:42:08;;;;;;;2.93;1.60;;;;;;;;;;472044;29;843;-68
2023/08/27 00:42:24;;;;;;;2.55;1.42;;;;;;;;;;471473;29;1460;-68
2023/08/27 00:42:39;;;;;;;3.20;1.47;;;;;;;;;;471088;29;1217;-69
2023/08/27 00:42:56;;;;;;;2.60;1.45;;;;;;;;;;470862;29;1211;-69
2023/08/27 00:43:11;;;;;;;2.25;1.55;;;;;;;;;;472357;29;1259;-68
2023/08/27 00:43:28;;;;;;;2.30;1.65;;;;;;;;;;472014;29;1098;-68
2023/08/27 00:43:43;;;;;;;2.70;1.60;;;;;;;;;;473149;29;1106;-68
2023/08/27 00:43:59;;;;;;;2.58;1.40;;;;;;;;;;473662;29;1159;-69
2023/08/27 00:44:14;;;;;;;2.47;1.50;;;;;;;;;;472649;29;1082;-68
2023/08/27 00:44:30;;;;;;;3.00;1.70;;;;;;;;;;471888;29;1306;-69
2023/08/27 00:44:46;;;;;;;2.53;1.52;;;;;;;;;;472415;29;1092;-68
2023/08/27 00:45:03;;;;;;;2.23;1.53;;;;;;;;;;472196;29;1958;-68
2023/08/27 00:45:18;;;;;;;2.50;1.63;;;;;;;;;;471578;29;1285;-68
2023/08/27 00:45:34;;;;;;;2.67;1.63;;;;;;;;;;471338;29;1110;-68
2023/08/27 00:45:50;;;;;;;3.60;1.90;;;;;;;;;;469641;29;1136;-68
2023/08/27 00:46:06;;;;;;;3.47;1.70;;;;;;;;;;467858;29;1498;-68
2023/08/27 00:46:23;;;;;;;2.43;1.50;;;;;;;;;;465296;29;1199;-69
2023/08/27 00:46:38;;;;;;;2.72;1.77;;;;;;;;;;468110;29;1606;-69
2023/08/27 00:46:54;;;;;;;2.88;1.70;;;;;;;;;;469587;29;1290;-69
2023/08/27 00:47:12;;;;;;;2.97;1.60;;;;;;;;;;470119;29;1096;-69
2023/08/27 00:47:27;;;;;;;2.70;1.50;;;;;;;;;;471119;29;943;-68
2023/08/27 00:47:43;;;;;;;2.83;1.52;;;;;;;;;;467394;29;1134;-69
2023/08/27 00:47:58;;;;;;;3.80;1.60;;;;;;;;;;464544;29;1122;-69
2023/08/27 00:48:14;;;;;;;3.00;1.42;;;;;;;;;;468750;29;1343;-70
2023/08/27 00:48:30;;;;;;;2.00;1.20;;;;;;;;;;469476;29;911;-69
2023/08/27 00:48:46;;;;;;;3.03;1.20;;;;;;;;;;470273;29;1293;-69
2023/08/27 00:49:01;;;;;;;4.80;1.30;;;;;;;;;;471630;29;1093;-68
2023/08/27 00:49:17;;;;;;;3.70;1.33;;;;;;;;;;468884;29;1140;-68
2023/08/27 00:49:32;;;;;;;2.57;1.20;;;;;;;;;;468989;29;1487;-68
2023/08/27 00:49:49;;;;;;;2.53;1.30;;;;;;;;;;467352;29;1080;-69
2023/08/27 00:50:07;;;;;;;2.28;1.10;;;;;;;;;;469908;29;1356;-68
2023/08/27 00:50:25;;;;;;;2.28;1.08;;;;;;;;;;470994;29;1193;-68
2023/08/27 00:50:40;;;;;;;2.30;1.08;;;;;;;;;;470577;29;1269;-69
2023/08/27 00:50:57;;;;;;;2.13;1.08;;;;;;;;;;470889;29;1061;-69
2023/08/27 00:51:12;;;;;;;2.22;1.10;;;;;;;;;;471083;29;962;-68
2023/08/27 00:51:29;;;;;;;2.50;1.20;;;;;;;;;;473006;29;939;-69
2023/08/27 00:51:45;;;;;;;1.98;1.10;;;;;;;;;;471986;29;1157;-69
2023/08/27 00:52:01;;;;;;;2.45;1.10;;;;;;;;;;467965;29;1199;-69
2023/08/27 00:52:19;;;;;;;2.30;1.10;;;;;;;;;;467811;29;1251;-69
2023/08/27 00:52:35;;;;;;;2.40;1.02;;;;;;;;;;467540;29;1152;-69
2023/08/27 00:52:51;;;;;;;3.03;1.10;;;;;;;;;;467081;29;1178;-68
2023/08/27 00:53:06;;;;;;;2.53;1.20;;;;;;;;;;466344;29;1104;-69
2023/08/27 00:53:22;;;;;;;2.15;1.13;;;;;;;;;;466813;29;1181;-69
2023/08/27 00:53:38;;;;;;;1.50;1.00;;;;;;;;;;467954;29;1298;-68
2023/08/27 00:53:54;;;;;;;2.25;1.05;;;;;;;;;;468428;29;1429;-69
2023/08/27 00:54:10;;;;;;;2.50;1.10;;;;;;;;;;469690;29;1226;-68
2023/08/27 00:54:26;;;;;;;1.65;1.00;;;;;;;;;;471782;29;1145;-68
2023/08/27 00:54:41;;;;;;;2.30;1.10;;;;;;;;;;470587;29;1119;-69
2023/08/27 00:54:59;;;;;;;3.35;1.20;;;;;;;;;;471385;29;1258;-68
2023/08/27 00:55:15;;;;;;;2.13;1.10;;;;;;;;;;471279;29;1216;-68
2023/08/27 00:55:30;;;;;;;2.40;1.10;;;;;;;;;;471978;29;1225;-68
2023/08/27 00:55:45;;;;;;;1.95;1.10;;;;;;;;;;471816;29;1163;-68
2023/08/27 00:56:02;;;;;;;1.67;1.03;;;;;;;;;;470607;29;1070;-68
2023/08/27 00:56:17;;;;;;;2.30;1.00;;;;;;;;;;471657;29;1030;-68
2023/08/27 00:56:33;;;;;;;2.30;1.10;;;;;;;;;;471760;29;1099;-69
2023/08/27 00:56:48;;;;;;;2.30;1.10;;;;;;;;;;471106;29;1286;-69
2023/08/27 00:57:05;;;;;;;2.38;1.20;;;;;;;;;;469934;29;1146;-69
2023/08/27 00:57:21;;;;;;;2.42;1.10;;;;;;;;;;469869;29;1335;-69
2023/08/27 00:57:39;;;;;;;3.20;1.00;;;;;;;;;;469003;29;1159;-69
2023/08/27 00:57:54;;;;;;;2.70;1.00;;;;;;;;;;470737;29;1279;-69
2023/08/27 00:58:10;;;;;;;1.67;0.93;;;;;;;;;;469820;29;1087;-68
2023/08/27 00:58:25;;;;;;;1.57;0.93;;;;;;;;;;470882;29;965;-68
2023/08/27 00:58:41;;;;;;;1.93;1.00;;;;;;;;;;471018;29;1111;-68
2023/08/27 00:58:56;;;;;;;1.60;0.90;;;;;;;;;;468614;29;1170;-68
2023/08/27 00:59:13;;;;;;;1.60;1.00;;;;;;;;;;468741;29;1163;-69
2023/08/27 00:59:28;;;;;;;1.88;1.00;;;;;;;;;;470007;29;1179;-68
2023/08/27 00:59:44;;;;;;;1.77;0.87;;;;;;;;;;469371;29;1082;-69
2023/08/27 01:00:00;;;;;;;1.40;0.80;;;;;;;;;;470039;29;1222;-69
2023/08/27 01:00:16;;;;;;;1.58;0.98;;;;;;;;;;482128;29;1193;-72
2023/08/27 01:00:32;;;;;;;1.88;1.00;;;;;;;;;;475432;29;896;-71
2023/08/27 01:00:48;;;;;;;1.27;1.00;;;;;;;;;;476838;29;1012;-74
2023/08/27 01:01:04;;;;;;;1.40;0.90;;;;;;;;;;478643;29;1280;-71
2023/08/27 01:01:22;;;;;;;1.80;0.90;;;;;;;;;;477646;29;1052;-72
2023/08/27 01:01:39;;;;;;;4.43;1.00;;;;;;;;;;478470;29;1033;-72
2023/08/27 01:01:55;;;;;;;2.13;1.00;;;;;;;;;;475675;29;1118;-73
2023/08/27 01:02:10;;;;;;;2.00;1.10;;;;;;;;;;476421;29;1092;-72
2023/08/27 01:02:25;;;;;;;2.23;1.10;;;;;;;;;;476645;29;1162;-72
2023/08/27 01:02:43;;;;;;;2.05;1.00;;;;;;;;;;480592;23;1964;-72
2023/08/27 01:02:59;;;;;;;3.17;1.13;;;;;;;;;;460071;29;2165;-72
2023/08/27 01:03:14;;;;;;;3.27;1.20;;;;;;;;;;461566;29;1133;-73
2023/08/27 01:03:30;;;;;;;2.58;1.08;;;;;;;;;;470366;29;1098;-72
2023/08/27 01:03:46;;;;;;;2.20;1.00;;;;;;;;;;460759;29;1174;-72
2023/08/27 01:04:01;;;;;;;2.45;1.10;;;;;;;;;;461125;29;1103;-72
2023/08/27 01:04:17;;;;;;;2.45;1.10;;;;;;;;;;464133;29;1152;-72
2023/08/27 01:04:33;;;;;;;2.00;1.10;;;;;;;;;;471033;29;1421;-72
2023/08/27 01:04:48;;;;;;;1.65;1.00;;;;;;;;;;459589;29;1229;-72
2023/08/27 01:05:04;;;;;;;1.65;0.93;;;;;;;;;;456941;29;2026;-72
2023/08/27 01:05:23;;;;;;;1.38;0.90;;;;;;;;;;461864;29;995;-72
2023/08/27 01:05:38;;;;;;;1.35;0.90;;;;;;;;;;469477;29;1298;-72
2023/08/27 01:05:53;;;;;;;1.90;1.07;;;;;;;;;;458671;29;911;-73
2023/08/27 01:06:09;;;;;;;2.45;1.10;;;;;;;;;;458451;29;1056;-72
2023/08/27 01:06:24;;;;;;;2.50;1.10;;;;;;;;;;466804;29;1168;-72
2023/08/27 01:06:40;;;;;;;1.50;0.90;;;;;;;;;;459391;29;1246;-72
2023/08/27 01:07:04;;;;;;;1.30;0.90;;;;;;;;;;460807;29;1126;-72
2023/08/27 01:07:30;;;;;;;1.40;0.90;;;;;;;;;;466357;29;1134;-72
2023/08/27 01:08:04;;;;;;;1.50;0.90;;;;;;;;;;463877;29;1157;-72
2023/08/27 01:08:44;;;;;;;2.33;0.95;;;;;;;;;;464909;29;1122;-72
2023/08/27 01:09:06;;;;;;;1.75;0.98;;;;;;;;;;457520;29;1039;-73
2023/08/27 01:09:36;;;;;;;2.35;1.02;;;;;;;;;;462800;29;1601;-72
2023/08/27 01:10:07;;;;;;;2.22;1.00;;;;;;;;;;458168;29;1253;-72
2023/08/27 01:10:44;;;;;;;1.60;1.00;;;;;;;;;;461084;29;1069;-72
2023/08/27 01:11:07;;;;;;;2.47;1.00;;;;;;;;;;458805;29;1626;-72
2023/08/27 01:11:36;;;;;;;2.17;1.00;;;;;;;;;;467496;29;1290;-72
2023/08/27 01:12:03;;;;;;;2.15;0.88;;;;;;;;;;467384;29;979;-72
2023/08/27 01:12:33;;;;;;;1.77;0.93;;;;;;;;;;465057;29;1713;-72
2023/08/27 01:13:03;;;;;;;1.55;0.82;;;;;;;;;;462555;29;1152;-72
2023/08/27 01:13:30;;;;;;;2.17;0.95;;;;;;;;;;462429;29;1160;-72
2023/08/27 01:14:05;;;;;;;1.65;1.00;;;;;;;;;;466997;29;941;-72
2023/08/27 01:14:22;;;;;;;2.33;1.00;;;;;;;;;;465817;29;1033;-73
2023/08/27 01:14:40;;;;;;;2.15;0.98;;;;;;;;;;471164;29;1132;-72
2023/08/27 01:14:57;;;;;;;2.28;1.00;;;;;;;;;;458320;29;1229;-72
2023/08/27 01:15:13;;;;;;;1.55;1.00;;;;;;;;;;460304;29;1084;-72
2023/08/27 01:15:29;;;;;;;1.30;1.00;;;;;;;;;;468581;29;1289;-72
2023/08/27 01:15:45;;;;;;;1.80;0.93;;;;;;;;;;466531;29;1171;-72
2023/08/27 01:16:02;;;;;;;1.70;0.90;;;;;;;;;;464404;29;1290;-72
2023/08/27 01:16:18;;;;;;;1.23;0.90;;;;;;;;;;461461;29;1162;-72
2023/08/27 01:16:35;;;;;;;1.60;0.90;;;;;;;;;;469710;29;1155;-72
2023/08/27 01:16:52;;;;;;;2.65;1.00;;;;;;;;;;466658;29;1261;-72
2023/08/27 01:17:10;;;;;;;2.40;1.02;;;;;;;;;;470428;29;1085;-72
2023/08/27 01:17:26;;;;;;;2.25;1.05;;;;;;;;;;470230;29;991;-72
2023/08/27 01:17:41;;;;;;;1.92;1.00;;;;;;;;;;468181;29;1274;-72
2023/08/27 01:17:59;;;;;;;2.08;1.00;;;;;;;;;;468382;29;1088;-72
2023/08/27 01:18:16;;;;;;;1.75;0.95;;;;;;;;;;469185;29;1049;-72
2023/08/27 01:18:32;;;;;;;1.35;0.90;;;;;;;;;;470352;29;1122;-72
2023/08/27 01:18:49;;;;;;;2.03;0.90;;;;;;;;;;470691;29;1217;-72
2023/08/27 01:19:13;;;;;;;1.77;0.88;;;;;;;;;;470647;29;1132;-72
2023/08/27 01:19:29;;;;;;;3.35;1.02;;;;;;;;;;470952;29;1158;-72
2023/08/27 01:19:44;;;;;;;2.17;1.08;;;;;;;;;;470921;29;1085;-72
2023/08/27 01:20:00;;;;;;;3.40;1.05;;;;;;;;;;470844;29;1147;-72
2023/08/27 01:20:16;;;;;;;3.03;1.00;;;;;;;;;;468308;29;1359;-72
2023/08/27 01:20:32;;;;;;;2.88;1.10;;;;;;;;;;469004;29;1183;-72
2023/08/27 01:20:47;;;;;;;2.63;1.10;;;;;;;;;;470295;29;1092;-72
2023/08/27 01:21:19;;;;;;;1.60;1.10;;;;;;;;;;470264;29;1175;-72
2023/08/27 01:21:34;;;;;;;1.55;1.00;;;;;;;;;;472699;29;1094;-72
2023/08/27 01:21:50;;;;;;;1.80;1.00;;;;;;;;;;472931;29;1107;-72
2023/08/27 01:22:05;;;;;;;2.40;1.03;;;;;;;;;;472734;29;987;-73
2023/08/27 01:22:21;;;;;;;2.28;1.08;;;;;;;;;;472035;29;1146;-72
2023/08/27 01:22:36;;;;;;;2.20;1.03;;;;;;;;;;470727;29;1223;-72
2023/08/27 01:22:52;;;;;;;2.70;0.95;;;;;;;;;;470593;29;1191;-72
2023/08/27 01:23:07;;;;;;;2.20;0.90;;;;;;;;;;470643;29;1054;-72
2023/08/27 01:23:24;;;;;;;2.07;1.03;;;;;;;;;;470322;29;1277;-72
2023/08/27 01:23:40;;;;;;;1.98;1.00;;;;;;;;;;469278;29;1150;-72
2023/08/27 01:23:55;;;;;;;2.17;0.98;;;;;;;;;;469562;29;1211;-72
2023/08/27 01:24:11;;;;;;;2.10;1.00;;;;;;;;;;469810;29;1110;-72
2023/08/27 01:24:26;;;;;;;1.70;1.00;;;;;;;;;;469026;29;1117;-72
2023/08/27 01:24:42;;;;;;;2.03;0.95;;;;;;;;;;471008;29;1194;-72
2023/08/27 01:24:57;;;;;;;2.23;0.90;;;;;;;;;;469921;29;1180;-72
2023/08/27 01:25:16;;;;;;;1.80;0.90;;;;;;;;;;470156;29;1947;-72
2023/08/27 01:25:41;;;;;;;1.40;1.00;;;;;;;;;;471927;29;1056;-72
2023/08/27 01:25:57;;;;;;;2.85;1.00;;;;;;;;;;472410;29;1111;-72
2023/08/27 01:26:20;;;;;;;3.25;1.10;;;;;;;;;;471777;29;1186;-72
2023/08/27 01:26:41;;;;;;;2.80;1.10;;;;;;;;;;472381;29;1068;-72
2023/08/27 01:27:03;;;;;;;3.50;1.13;;;;;;;;;;474335;29;1350;-72
2023/08/27 01:27:29;;;;;;;3.55;1.10;;;;;;;;;;473257;29;979;-72
2023/08/27 01:28:04;;;;;;;2.40;1.00;;;;;;;;;;472490;29;1063;-72
2023/08/27 01:28:31;;;;;;;2.40;0.90;;;;;;;;;;472474;29;1034;-73
2023/08/27 01:29:02;;;;;;;3.00;1.10;;;;;;;;;;471804;29;1407;-72
2023/08/27 01:29:53;;;;;;;2.55;1.00;;;;;;;;;;472289;29;1256;-72
2023/08/27 01:30:26;;;;;;;3.00;1.10;;;;;;;;;;464431;29;1487;-72
2023/08/27 01:30:59;;;;;;;1.63;1.00;;;;;;;;;;466170;29;1706;-72
2023/08/27 01:31:21;;;;;;;1.63;0.98;;;;;;;;;;470950;29;1250;-72
2023/08/27 01:31:45;;;;;;;1.73;1.08;;;;;;;;;;472030;29;1068;-72
2023/08/27 01:32:11;;;;;;;2.58;1.08;;;;;;;;;;473517;29;1095;-72
2023/08/27 01:32:39;;;;;;;2.13;1.00;;;;;;;;;;474739;29;1508;-72
2023/08/27 01:33:05;;;;;;;2.58;1.10;;;;;;;;;;474421;29;1130;-72
2023/08/27 01:33:25;;;;;;;2.33;1.10;;;;;;;;;;473951;28;1331;-72
2023/08/27 01:33:41;;;;;;;2.30;1.20;;;;;;;;;;473655;29;1307;-72
2023/08/27 01:33:59;;;;;;;1.67;1.17;;;;;;;;;;473067;29;1114;-72
2023/08/27 01:34:16;;;;;;;1.77;1.00;;;;;;;;;;472673;29;1246;-72
2023/08/27 01:34:33;;;;;;;2.70;1.00;;;;;;;;;;472258;29;1123;-72
2023/08/27 01:34:48;;;;;;;2.97;1.20;;;;;;;;;;472489;29;1192;-72
2023/08/27 01:35:06;;;;;;;1.80;1.10;;;;;;;;;;472488;29;1208;-72
2023/08/27 01:35:22;;;;;;;2.45;1.02;;;;;;;;;;472957;29;1230;-72
2023/08/27 01:35:39;;;;;;;2.95;1.10;;;;;;;;;;471406;29;1380;-72
2023/08/27 01:35:57;;;;;;;2.60;1.20;;;;;;;;;;472191;29;1082;-72
2023/08/27 01:36:12;;;;;;;2.33;1.10;;;;;;;;;;472717;29;1273;-72
2023/08/27 01:36:28;;;;;;;2.97;1.00;;;;;;;;;;470544;29;1258;-72
2023/08/27 01:36:44;;;;;;;2.97;1.07;;;;;;;;;;470016;29;1174;-72
2023/08/27 01:37:00;;;;;;;1.60;0.98;;;;;;;;;;470951;29;958;-72
2023/08/27 01:37:16;;;;;;;1.15;0.90;;;;;;;;;;470590;29;1314;-72
2023/08/27 01:37:33;;;;;;;1.23;0.90;;;;;;;;;;472528;29;1139;-72
2023/08/27 01:37:48;;;;;;;2.38;1.05;;;;;;;;;;472518;29;1234;-72
2023/08/27 01:38:04;;;;;;;2.75;1.10;;;;;;;;;;472537;29;1190;-72
2023/08/27 01:38:20;;;;;;;3.03;1.10;;;;;;;;;;469306;29;1214;-73
2023/08/27 01:38:35;;;;;;;2.72;1.10;;;;;;;;;;469627;29;1408;-72
2023/08/27 01:38:51;;;;;;;1.70;1.10;;;;;;;;;;470517;29;1001;-72
2023/08/27 01:39:07;;;;;;;1.90;1.10;;;;;;;;;;471258;29;986;-72
2023/08/27 01:39:22;;;;;;;1.42;1.00;;;;;;;;;;468928;29;1246;-72
2023/08/27 01:39:38;;;;;;;1.27;1.08;;;;;;;;;;470091;29;1046;-72
2023/08/27 01:40:05;;;;;;;1.73;1.15;;;;;;;;;;469167;29;1625;-73
2023/08/27 01:40:21;;;;;;;2.30;1.30;;;;;;;;;;471094;29;1049;-72
2023/08/27 01:40:37;;;;;;;3.35;1.40;;;;;;;;;;470362;29;1044;-72
2023/08/27 01:40:52;;;;;;;3.53;1.30;;;;;;;;;;468552;29;1194;-72
2023/08/27 01:41:08;;;;;;;2.10;1.20;;;;;;;;;;468572;29;1127;-72
2023/08/27 01:41:23;;;;;;;2.10;1.20;;;;;;;;;;471696;29;1068;-72
2023/08/27 01:41:39;;;;;;;1.80;1.10;;;;;;;;;;469049;29;1324;-72
2023/08/27 01:41:54;;;;;;;2.30;1.10;;;;;;;;;;469184;29;1262;-72
2023/08/27 01:42:12;;;;;;;3.17;1.20;;;;;;;;;;469058;29;1111;-72
2023/08/27 01:42:27;;;;;;;2.15;1.10;;;;;;;;;;469691;29;1116;-72
2023/08/27 01:42:43;;;;;;;2.23;1.17;;;;;;;;;;470427;29;1100;-72
2023/08/27 01:42:58;;;;;;;2.50;1.23;;;;;;;;;;470706;29;1035;-72
2023/08/27 01:43:14;;;;;;;2.40;1.20;;;;;;;;;;470816;29;963;-72
2023/08/27 01:43:29;;;;;;;2.30;1.20;;;;;;;;;;471318;29;1134;-73
2023/08/27 01:43:45;;;;;;;1.50;1.00;;;;;;;;;;472319;29;913;-72
2023/08/27 01:44:00;;;;;;;1.58;1.00;;;;;;;;;;471136;29;1137;-72
2023/08/27 01:44:16;;;;;;;1.77;1.10;;;;;;;;;;470046;29;898;-72
2023/08/27 01:44:31;;;;;;;1.83;1.05;;;;;;;;;;469465;29;1171;-72
2023/08/27 01:44:46;;;;;;;1.73;1.00;;;;;;;;;;470460;29;1090;-72
2023/08/27 01:45:04;;;;;;;1.38;1.10;;;;;;;;;;470027;29;1121;-72
2023/08/27 01:45:19;;;;;;;1.27;1.00;;;;;;;;;;469268;29;1943;-72
2023/08/27 01:45:35;;;;;;;1.88;1.10;;;;;;;;;;470203;29;1453;-72
2023/08/27 01:45:50;;;;;;;2.63;1.30;;;;;;;;;;469716;29;1038;-72
2023/08/27 01:46:06;;;;;;;2.60;1.30;;;;;;;;;;470888;29;915;-72